sensor_id;sensor_type;location;lat;lon;timestamp;P1;durP1;ratioP1;P2;durP2;ratioP2
75691;SDS011;64307;52.508;6.090;2023-03-18T00:00:10;9.25;;;4.50;;
75691;SDS011;64307;52.508;6.090;2023-03-18T00:02:37;7.43;;;4.35;;
75691;SDS011;64307;52.508;6.090;2023-03-18T00:05:06;12.85;;;6.40;;
75691;SDS011;64307;52.508;6.090;2023-03-18T00:07:33;9.23;;;4.45;;
75691;SDS011;64307;52.508;6.090;2023-03-18T00:10:00;8.80;;;4.60;;
75691;SDS011;64307;52.508;6.090;2023-03-18T00:12:26;9.00;;;5.65;;
75691;SDS011;64307;52.508;6.090;2023-03-18T00:14:51;10.07;;;6.07;;
75691;SDS011;64307;52.508;6.090;2023-03-18T00:17:18;10.10;;;5.45;;
75691;SDS011;64307;52.508;6.090;2023-03-18T00:19:44;10.40;;;5.97;;
75691;SDS011;64307;52.508;6.090;2023-03-18T00:22:10;12.45;;;5.63;;
75691;SDS011;64307;52.508;6.090;2023-03-18T00:24:35;11.75;;;7.00;;
75691;SDS011;64307;52.508;6.090;2023-03-18T00:27:01;14.95;;;7.45;;
75691;SDS011;64307;52.508;6.090;2023-03-18T00:29:28;10.48;;;5.78;;
75691;SDS011;64307;52.508;6.090;2023-03-18T00:31:54;12.45;;;6.80;;
75691;SDS011;64307;52.508;6.090;2023-03-18T00:34:20;8.70;;;5.50;;
75691;SDS011;64307;52.508;6.090;2023-03-18T00:36:45;11.25;;;6.30;;
75691;SDS011;64307;52.508;6.090;2023-03-18T00:39:14;12.15;;;6.28;;
75691;SDS011;64307;52.508;6.090;2023-03-18T00:41:42;14.68;;;6.68;;
75691;SDS011;64307;52.508;6.090;2023-03-18T00:44:08;12.13;;;6.32;;
75691;SDS011;64307;52.508;6.090;2023-03-18T00:46:34;10.02;;;6.25;;
75691;SDS011;64307;52.508;6.090;2023-03-18T00:49:03;13.38;;;6.45;;
75691;SDS011;64307;52.508;6.090;2023-03-18T00:51:30;14.40;;;7.18;;
75691;SDS011;64307;52.508;6.090;2023-03-18T00:53:59;9.95;;;6.55;;
75691;SDS011;64307;52.508;6.090;2023-03-18T00:56:27;13.55;;;7.93;;
75691;SDS011;64307;52.508;6.090;2023-03-18T00:58:54;11.80;;;8.48;;
75691;SDS011;64307;52.508;6.090;2023-03-18T01:01:21;11.65;;;6.78;;
75691;SDS011;64307;52.508;6.090;2023-03-18T01:03:48;12.48;;;7.05;;
75691;SDS011;64307;52.508;6.090;2023-03-18T01:06:15;12.15;;;6.63;;
75691;SDS011;64307;52.508;6.090;2023-03-18T01:08:44;12.60;;;7.13;;
75691;SDS011;64307;52.508;6.090;2023-03-18T01:11:10;12.57;;;8.00;;
75691;SDS011;64307;52.508;6.090;2023-03-18T01:13:35;17.98;;;9.10;;
75691;SDS011;64307;52.508;6.090;2023-03-18T01:16:02;13.70;;;9.23;;
75691;SDS011;64307;52.508;6.090;2023-03-18T01:18:29;11.75;;;8.73;;
75691;SDS011;64307;52.508;6.090;2023-03-18T01:20:55;16.60;;;10.00;;
75691;SDS011;64307;52.508;6.090;2023-03-18T01:23:21;14.68;;;7.30;;
75691;SDS011;64307;52.508;6.090;2023-03-18T01:25:46;15.27;;;7.18;;
75691;SDS011;64307;52.508;6.090;2023-03-18T01:28:12;15.10;;;8.93;;
75691;SDS011;64307;52.508;6.090;2023-03-18T01:30:37;14.15;;;10.18;;
75691;SDS011;64307;52.508;6.090;2023-03-18T01:33:04;14.07;;;8.95;;
75691;SDS011;64307;52.508;6.090;2023-03-18T01:35:31;14.63;;;9.55;;
75691;SDS011;64307;52.508;6.090;2023-03-18T01:37:58;21.15;;;8.90;;
75691;SDS011;64307;52.508;6.090;2023-03-18T01:40:24;14.35;;;8.32;;
75691;SDS011;64307;52.508;6.090;2023-03-18T01:42:57;13.45;;;7.68;;
75691;SDS011;64307;52.508;6.090;2023-03-18T01:47:55;14.48;;;8.35;;
75691;SDS011;64307;52.508;6.090;2023-03-18T01:50:23;14.48;;;9.02;;
75691;SDS011;64307;52.508;6.090;2023-03-18T01:52:53;19.92;;;8.40;;
75691;SDS011;64307;52.508;6.090;2023-03-18T01:55:23;14.40;;;8.75;;
75691;SDS011;64307;52.508;6.090;2023-03-18T01:57:50;14.10;;;8.80;;
75691;SDS011;64307;52.508;6.090;2023-03-18T02:00:16;18.02;;;8.40;;
75691;SDS011;64307;52.508;6.090;2023-03-18T02:02:44;15.32;;;8.88;;
75691;SDS011;64307;52.508;6.090;2023-03-18T02:05:12;17.63;;;9.18;;
75691;SDS011;64307;52.508;6.090;2023-03-18T02:07:40;15.85;;;10.93;;
75691;SDS011;64307;52.508;6.090;2023-03-18T02:10:39;14.40;;;8.38;;
75691;SDS011;64307;52.508;6.090;2023-03-18T02:12:59;15.45;;;8.48;;
75691;SDS011;64307;52.508;6.090;2023-03-18T02:15:27;14.90;;;8.50;;
75691;SDS011;64307;52.508;6.090;2023-03-18T02:17:59;15.35;;;7.57;;
75691;SDS011;64307;52.508;6.090;2023-03-18T02:23:28;11.73;;;7.03;;
75691;SDS011;64307;52.508;6.090;2023-03-18T02:26:15;12.65;;;7.22;;
75691;SDS011;64307;52.508;6.090;2023-03-18T02:28:43;14.45;;;8.98;;
75691;SDS011;64307;52.508;6.090;2023-03-18T02:31:12;16.50;;;9.00;;
75691;SDS011;64307;52.508;6.090;2023-03-18T02:33:40;12.35;;;7.57;;
75691;SDS011;64307;52.508;6.090;2023-03-18T02:36:10;12.77;;;7.50;;
75691;SDS011;64307;52.508;6.090;2023-03-18T02:38:40;14.70;;;7.57;;
75691;SDS011;64307;52.508;6.090;2023-03-18T02:41:11;14.95;;;8.80;;
75691;SDS011;64307;52.508;6.090;2023-03-18T02:43:38;12.38;;;7.80;;
75691;SDS011;64307;52.508;6.090;2023-03-18T02:49:11;13.80;;;7.40;;
75691;SDS011;64307;52.508;6.090;2023-03-18T02:51:38;12.70;;;7.78;;
75691;SDS011;64307;52.508;6.090;2023-03-18T02:54:09;13.57;;;8.32;;
75691;SDS011;64307;52.508;6.090;2023-03-18T02:56:37;13.88;;;9.45;;
75691;SDS011;64307;52.508;6.090;2023-03-18T02:59:03;19.25;;;10.38;;
75691;SDS011;64307;52.508;6.090;2023-03-18T03:01:30;15.80;;;9.57;;
75691;SDS011;64307;52.508;6.090;2023-03-18T03:03:56;14.38;;;8.63;;
75691;SDS011;64307;52.508;6.090;2023-03-18T03:06:21;18.58;;;9.27;;
75691;SDS011;64307;52.508;6.090;2023-03-18T03:08:47;14.38;;;9.23;;
75691;SDS011;64307;52.508;6.090;2023-03-18T03:13:39;17.88;;;9.63;;
75691;SDS011;64307;52.508;6.090;2023-03-18T03:16:05;17.65;;;9.68;;
75691;SDS011;64307;52.508;6.090;2023-03-18T03:18:32;15.57;;;11.30;;
75691;SDS011;64307;52.508;6.090;2023-03-18T03:20:59;17.58;;;9.77;;
75691;SDS011;64307;52.508;6.090;2023-03-18T03:23:24;17.27;;;10.35;;
75691;SDS011;64307;52.508;6.090;2023-03-18T03:28:15;15.57;;;9.77;;
75691;SDS011;64307;52.508;6.090;2023-03-18T03:33:06;20.55;;;11.63;;
75691;SDS011;64307;52.508;6.090;2023-03-18T03:35:32;18.20;;;10.68;;
75691;SDS011;64307;52.508;6.090;2023-03-18T03:37:57;18.27;;;10.45;;
75691;SDS011;64307;52.508;6.090;2023-03-18T03:42:51;18.00;;;11.63;;
75691;SDS011;64307;52.508;6.090;2023-03-18T03:45:16;18.58;;;10.73;;
75691;SDS011;64307;52.508;6.090;2023-03-18T03:47:43;19.88;;;11.23;;
75691;SDS011;64307;52.508;6.090;2023-03-18T03:50:10;16.00;;;10.32;;
75691;SDS011;64307;52.508;6.090;2023-03-18T03:52:36;18.50;;;12.68;;
75691;SDS011;64307;52.508;6.090;2023-03-18T03:55:03;18.75;;;11.45;;
75691;SDS011;64307;52.508;6.090;2023-03-18T03:57:30;20.17;;;13.00;;
75691;SDS011;64307;52.508;6.090;2023-03-18T03:59:55;16.80;;;10.20;;
75691;SDS011;64307;52.508;6.090;2023-03-18T04:02:21;20.35;;;10.88;;
75691;SDS011;64307;52.508;6.090;2023-03-18T04:04:48;19.27;;;10.32;;
75691;SDS011;64307;52.508;6.090;2023-03-18T04:07:14;17.00;;;9.80;;
75691;SDS011;64307;52.508;6.090;2023-03-18T04:09:40;19.13;;;9.05;;
75691;SDS011;64307;52.508;6.090;2023-03-18T04:14:32;14.75;;;8.85;;
75691;SDS011;64307;52.508;6.090;2023-03-18T04:19:24;18.58;;;8.60;;
75691;SDS011;64307;52.508;6.090;2023-03-18T04:21:51;16.80;;;8.73;;
75691;SDS011;64307;52.508;6.090;2023-03-18T04:24:17;17.05;;;9.07;;
75691;SDS011;64307;52.508;6.090;2023-03-18T04:29:08;15.63;;;8.80;;
75691;SDS011;64307;52.508;6.090;2023-03-18T04:33:59;17.48;;;7.95;;
75691;SDS011;64307;52.508;6.090;2023-03-18T04:38:50;15.93;;;7.97;;
75691;SDS011;64307;52.508;6.090;2023-03-18T04:41:16;15.77;;;8.63;;
75691;SDS011;64307;52.508;6.090;2023-03-18T04:46:08;17.20;;;8.15;;
75691;SDS011;64307;52.508;6.090;2023-03-18T04:48:34;13.75;;;7.70;;
75691;SDS011;64307;52.508;6.090;2023-03-18T04:53:26;16.60;;;8.77;;
75691;SDS011;64307;52.508;6.090;2023-03-18T04:58:16;14.00;;;9.18;;
75691;SDS011;64307;52.508;6.090;2023-03-18T05:03:08;15.35;;;8.30;;
75691;SDS011;64307;52.508;6.090;2023-03-18T05:07:59;16.05;;;10.10;;
75691;SDS011;64307;52.508;6.090;2023-03-18T05:12:49;19.67;;;9.87;;
75691;SDS011;64307;52.508;6.090;2023-03-18T05:17:40;16.07;;;8.97;;
75691;SDS011;64307;52.508;6.090;2023-03-18T05:22:32;18.92;;;9.15;;
75691;SDS011;64307;52.508;6.090;2023-03-18T05:27:23;19.27;;;11.17;;
75691;SDS011;64307;52.508;6.090;2023-03-18T05:32:14;15.83;;;10.60;;
75691;SDS011;64307;52.508;6.090;2023-03-18T05:34:40;14.43;;;9.73;;
75691;SDS011;64307;52.508;6.090;2023-03-18T05:37:07;17.35;;;8.98;;
75691;SDS011;64307;52.508;6.090;2023-03-18T05:39:34;17.88;;;9.15;;
75691;SDS011;64307;52.508;6.090;2023-03-18T05:44:26;18.55;;;10.50;;
75691;SDS011;64307;52.508;6.090;2023-03-18T05:49:17;14.97;;;8.50;;
75691;SDS011;64307;52.508;6.090;2023-03-18T05:51:43;14.93;;;8.80;;
75691;SDS011;64307;52.508;6.090;2023-03-18T05:54:10;13.80;;;8.07;;
75691;SDS011;64307;52.508;6.090;2023-03-18T05:59:00;15.83;;;8.63;;
75691;SDS011;64307;52.508;6.090;2023-03-18T06:01:27;13.68;;;8.25;;
75691;SDS011;64307;52.508;6.090;2023-03-18T06:03:54;15.35;;;8.38;;
75691;SDS011;64307;52.508;6.090;2023-03-18T06:08:45;14.98;;;9.95;;
75691;SDS011;64307;52.508;6.090;2023-03-18T06:11:11;16.10;;;10.23;;
75691;SDS011;64307;52.508;6.090;2023-03-18T06:16:03;20.65;;;10.32;;
75691;SDS011;64307;52.508;6.090;2023-03-18T06:20:53;17.07;;;8.97;;
75691;SDS011;64307;52.508;6.090;2023-03-18T06:25:44;14.02;;;8.20;;
75691;SDS011;64307;52.508;6.090;2023-03-18T06:28:11;16.40;;;9.57;;
75691;SDS011;64307;52.508;6.090;2023-03-18T06:30:37;18.08;;;11.50;;
75691;SDS011;64307;52.508;6.090;2023-03-18T06:35:27;16.27;;;8.63;;
75691;SDS011;64307;52.508;6.090;2023-03-18T06:37:53;19.33;;;10.50;;
75691;SDS011;64307;52.508;6.090;2023-03-18T06:40:20;15.57;;;9.80;;
75691;SDS011;64307;52.508;6.090;2023-03-18T06:42:46;17.55;;;9.15;;
75691;SDS011;64307;52.508;6.090;2023-03-18T06:47:37;15.18;;;8.68;;
75691;SDS011;64307;52.508;6.090;2023-03-18T06:50:04;19.92;;;12.13;;
75691;SDS011;64307;52.508;6.090;2023-03-18T06:54:55;15.40;;;8.52;;
75691;SDS011;64307;52.508;6.090;2023-03-18T06:59:46;14.77;;;9.37;;
75691;SDS011;64307;52.508;6.090;2023-03-18T07:02:13;16.67;;;9.57;;
75691;SDS011;64307;52.508;6.090;2023-03-18T07:04:39;20.95;;;12.13;;
75691;SDS011;64307;52.508;6.090;2023-03-18T07:09:30;17.70;;;10.37;;
75691;SDS011;64307;52.508;6.090;2023-03-18T07:11:57;20.55;;;11.25;;
75691;SDS011;64307;52.508;6.090;2023-03-18T07:16:48;18.90;;;11.90;;
75691;SDS011;64307;52.508;6.090;2023-03-18T07:21:40;19.02;;;11.65;;
75691;SDS011;64307;52.508;6.090;2023-03-18T07:24:06;22.92;;;11.63;;
75691;SDS011;64307;52.508;6.090;2023-03-18T07:28:57;19.10;;;10.23;;
75691;SDS011;64307;52.508;6.090;2023-03-18T07:33:49;23.92;;;12.07;;
75691;SDS011;64307;52.508;6.090;2023-03-18T07:36:14;22.60;;;11.65;;
75691;SDS011;64307;52.508;6.090;2023-03-18T07:38:39;18.50;;;11.60;;
75691;SDS011;64307;52.508;6.090;2023-03-18T07:41:05;19.05;;;10.65;;
75691;SDS011;64307;52.508;6.090;2023-03-18T07:43:31;18.13;;;10.77;;
75691;SDS011;64307;52.508;6.090;2023-03-18T07:45:56;19.95;;;11.18;;
75691;SDS011;64307;52.508;6.090;2023-03-18T07:48:22;15.80;;;10.07;;
75691;SDS011;64307;52.508;6.090;2023-03-18T07:50:48;21.15;;;12.73;;
75691;SDS011;64307;52.508;6.090;2023-03-18T07:53:13;21.55;;;11.32;;
75691;SDS011;64307;52.508;6.090;2023-03-18T07:55:39;20.42;;;10.82;;
75691;SDS011;64307;52.508;6.090;2023-03-18T07:58:05;20.10;;;12.65;;
75691;SDS011;64307;52.508;6.090;2023-03-18T08:00:31;23.52;;;13.50;;
75691;SDS011;64307;52.508;6.090;2023-03-18T08:02:56;20.75;;;11.65;;
75691;SDS011;64307;52.508;6.090;2023-03-18T08:05:22;18.90;;;10.20;;
75691;SDS011;64307;52.508;6.090;2023-03-18T08:07:47;18.80;;;12.43;;
75691;SDS011;64307;52.508;6.090;2023-03-18T08:10:13;18.25;;;9.75;;
75691;SDS011;64307;52.508;6.090;2023-03-18T08:12:39;14.63;;;10.00;;
75691;SDS011;64307;52.508;6.090;2023-03-18T08:15:06;16.40;;;9.23;;
75691;SDS011;64307;52.508;6.090;2023-03-18T08:17:33;18.25;;;9.07;;
75691;SDS011;64307;52.508;6.090;2023-03-18T08:19:58;17.20;;;9.43;;
75691;SDS011;64307;52.508;6.090;2023-03-18T08:22:23;13.60;;;8.40;;
75691;SDS011;64307;52.508;6.090;2023-03-18T08:24:49;17.08;;;8.85;;
75691;SDS011;64307;52.508;6.090;2023-03-18T08:27:15;17.52;;;8.57;;
75691;SDS011;64307;52.508;6.090;2023-03-18T08:29:41;14.25;;;8.93;;
75691;SDS011;64307;52.508;6.090;2023-03-18T08:32:06;16.10;;;10.25;;
75691;SDS011;64307;52.508;6.090;2023-03-18T08:34:31;15.35;;;8.80;;
75691;SDS011;64307;52.508;6.090;2023-03-18T08:36:57;16.52;;;9.70;;
75691;SDS011;64307;52.508;6.090;2023-03-18T08:39:23;17.38;;;9.02;;
75691;SDS011;64307;52.508;6.090;2023-03-18T08:41:48;15.07;;;9.70;;
75691;SDS011;64307;52.508;6.090;2023-03-18T08:44:13;16.13;;;10.00;;
75691;SDS011;64307;52.508;6.090;2023-03-18T08:46:39;14.20;;;8.95;;
75691;SDS011;64307;52.508;6.090;2023-03-18T08:49:04;15.93;;;11.32;;
75691;SDS011;64307;52.508;6.090;2023-03-18T08:51:30;13.23;;;10.25;;
75691;SDS011;64307;52.508;6.090;2023-03-18T08:53:56;12.50;;;10.40;;
75691;SDS011;64307;52.508;6.090;2023-03-18T08:56:22;11.55;;;7.82;;
75691;SDS011;64307;52.508;6.090;2023-03-18T08:58:48;11.35;;;9.90;;
75691;SDS011;64307;52.508;6.090;2023-03-18T09:01:13;13.95;;;9.45;;
75691;SDS011;64307;52.508;6.090;2023-03-18T09:03:39;13.10;;;10.65;;
75691;SDS011;64307;52.508;6.090;2023-03-18T09:06:05;13.80;;;9.02;;
75691;SDS011;64307;52.508;6.090;2023-03-18T09:08:30;17.70;;;10.50;;
75691;SDS011;64307;52.508;6.090;2023-03-18T09:10:56;12.90;;;9.15;;
75691;SDS011;64307;52.508;6.090;2023-03-18T09:13:22;16.42;;;12.15;;
75691;SDS011;64307;52.508;6.090;2023-03-18T09:15:48;14.93;;;9.90;;
75691;SDS011;64307;52.508;6.090;2023-03-18T09:18:14;16.48;;;10.50;;
75691;SDS011;64307;52.508;6.090;2023-03-18T09:20:42;14.50;;;11.07;;
75691;SDS011;64307;52.508;6.090;2023-03-18T09:23:09;16.05;;;9.65;;
75691;SDS011;64307;52.508;6.090;2023-03-18T09:25:36;15.60;;;10.27;;
75691;SDS011;64307;52.508;6.090;2023-03-18T09:28:03;13.80;;;9.65;;
75691;SDS011;64307;52.508;6.090;2023-03-18T09:30:28;14.30;;;9.15;;
75691;SDS011;64307;52.508;6.090;2023-03-18T09:32:54;15.50;;;9.23;;
75691;SDS011;64307;52.508;6.090;2023-03-18T09:35:20;11.65;;;8.73;;
75691;SDS011;64307;52.508;6.090;2023-03-18T09:37:46;15.52;;;10.10;;
75691;SDS011;64307;52.508;6.090;2023-03-18T09:40:15;17.05;;;8.70;;
75691;SDS011;64307;52.508;6.090;2023-03-18T09:42:52;15.05;;;9.13;;
75691;SDS011;64307;52.508;6.090;2023-03-18T09:45:34;13.88;;;9.57;;
75691;SDS011;64307;52.508;6.090;2023-03-18T09:50:59;12.45;;;8.02;;
75691;SDS011;64307;52.508;6.090;2023-03-18T09:54:10;11.98;;;8.73;;
75691;SDS011;64307;52.508;6.090;2023-03-18T09:56:40;12.57;;;7.28;;
75691;SDS011;64307;52.508;6.090;2023-03-18T10:02:02;13.57;;;9.35;;
75691;SDS011;64307;52.508;6.090;2023-03-18T10:04:43;12.20;;;8.30;;
75691;SDS011;64307;52.508;6.090;2023-03-18T10:07:13;12.40;;;8.40;;
75691;SDS011;64307;52.508;6.090;2023-03-18T10:09:47;12.35;;;7.88;;
75691;SDS011;64307;52.508;6.090;2023-03-18T10:12:31;11.05;;;7.63;;
75691;SDS011;64307;52.508;6.090;2023-03-18T10:17:41;10.10;;;6.82;;
75691;SDS011;64307;52.508;6.090;2023-03-18T10:20:15;10.82;;;8.00;;
75691;SDS011;64307;52.508;6.090;2023-03-18T10:25:33;12.57;;;7.50;;
75691;SDS011;64307;52.508;6.090;2023-03-18T10:33:12;11.48;;;7.88;;
75691;SDS011;64307;52.508;6.090;2023-03-18T10:35:52;13.18;;;8.82;;
75691;SDS011;64307;52.508;6.090;2023-03-18T10:38:33;13.43;;;9.65;;
75691;SDS011;64307;52.508;6.090;2023-03-18T10:41:03;13.60;;;8.85;;
75691;SDS011;64307;52.508;6.090;2023-03-18T10:43:39;14.27;;;9.80;;
75691;SDS011;64307;52.508;6.090;2023-03-18T10:46:04;16.67;;;10.37;;
75691;SDS011;64307;52.508;6.090;2023-03-18T10:48:40;14.35;;;9.80;;
75691;SDS011;64307;52.508;6.090;2023-03-18T10:51:12;12.60;;;7.93;;
75691;SDS011;64307;52.508;6.090;2023-03-18T10:53:45;14.00;;;10.05;;
75691;SDS011;64307;52.508;6.090;2023-03-18T10:56:19;12.45;;;7.28;;
75691;SDS011;64307;52.508;6.090;2023-03-18T10:58:46;11.52;;;7.30;;
75691;SDS011;64307;52.508;6.090;2023-03-18T11:01:12;11.43;;;8.48;;
75691;SDS011;64307;52.508;6.090;2023-03-18T11:03:48;8.82;;;6.75;;
75691;SDS011;64307;52.508;6.090;2023-03-18T11:06:18;9.95;;;6.65;;
75691;SDS011;64307;52.508;6.090;2023-03-18T11:08:49;10.15;;;8.23;;
75691;SDS011;64307;52.508;6.090;2023-03-18T11:11:27;8.43;;;6.13;;
75691;SDS011;64307;52.508;6.090;2023-03-18T11:13:57;10.02;;;6.88;;
75691;SDS011;64307;52.508;6.090;2023-03-18T11:16:45;9.57;;;6.28;;
75691;SDS011;64307;52.508;6.090;2023-03-18T11:21:59;14.02;;;8.13;;
75691;SDS011;64307;52.508;6.090;2023-03-18T11:24:36;9.57;;;7.47;;
75691;SDS011;64307;52.508;6.090;2023-03-18T11:29:41;12.95;;;7.45;;
75691;SDS011;64307;52.508;6.090;2023-03-18T11:32:23;11.07;;;7.63;;
75691;SDS011;64307;52.508;6.090;2023-03-18T11:34:57;10.65;;;8.18;;
75691;SDS011;64307;52.508;6.090;2023-03-18T11:37:31;12.52;;;7.43;;
75691;SDS011;64307;52.508;6.090;2023-03-18T11:40:15;11.65;;;7.32;;
75691;SDS011;64307;52.508;6.090;2023-03-18T11:42:44;10.90;;;7.85;;
75691;SDS011;64307;52.508;6.090;2023-03-18T11:48:04;10.75;;;6.45;;
75691;SDS011;64307;52.508;6.090;2023-03-18T11:50:38;11.05;;;6.72;;
75691;SDS011;64307;52.508;6.090;2023-03-18T11:55:46;12.02;;;6.15;;
75691;SDS011;64307;52.508;6.090;2023-03-18T12:12:14;6.95;;;4.53;;
75691;SDS011;64307;52.508;6.090;2023-03-18T12:20:29;6.65;;;3.67;;
75691;SDS011;64307;52.508;6.090;2023-03-18T12:23:12;8.15;;;4.65;;
75691;SDS011;64307;52.508;6.090;2023-03-18T12:26:02;6.30;;;3.08;;
75691;SDS011;64307;52.508;6.090;2023-03-18T12:28:41;5.82;;;3.10;;
75691;SDS011;64307;52.508;6.090;2023-03-18T12:31:54;7.95;;;3.33;;
75691;SDS011;64307;52.508;6.090;2023-03-18T12:43:05;6.72;;;4.32;;
75691;SDS011;64307;52.508;6.090;2023-03-18T12:45:42;8.18;;;4.70;;
75691;SDS011;64307;52.508;6.090;2023-03-18T12:48:13;9.48;;;5.20;;
75691;SDS011;64307;52.508;6.090;2023-03-18T12:50:48;6.70;;;4.30;;
75691;SDS011;64307;52.508;6.090;2023-03-18T12:53:27;8.40;;;4.93;;
75691;SDS011;64307;52.508;6.090;2023-03-18T12:55:58;6.90;;;4.70;;
75691;SDS011;64307;52.508;6.090;2023-03-18T12:58:29;6.50;;;4.68;;
75691;SDS011;64307;52.508;6.090;2023-03-18T13:01:01;8.45;;;4.82;;
75691;SDS011;64307;52.508;6.090;2023-03-18T13:05:59;7.07;;;4.73;;
75691;SDS011;64307;52.508;6.090;2023-03-18T13:08:49;8.57;;;4.35;;
75691;SDS011;64307;52.508;6.090;2023-03-18T13:25:28;8.02;;;5.25;;
75691;SDS011;64307;52.508;6.090;2023-03-18T13:31:05;7.60;;;4.65;;
75691;SDS011;64307;52.508;6.090;2023-03-18T13:39:33;6.47;;;3.30;;
75691;SDS011;64307;52.508;6.090;2023-03-18T13:42:11;6.07;;;3.10;;
75691;SDS011;64307;52.508;6.090;2023-03-18T13:48:06;7.22;;;2.97;;
75691;SDS011;64307;52.508;6.090;2023-03-18T13:50:35;4.88;;;3.00;;
75691;SDS011;64307;52.508;6.090;2023-03-18T13:53:03;4.90;;;2.50;;
75691;SDS011;64307;52.508;6.090;2023-03-18T13:55:45;6.13;;;2.90;;
75691;SDS011;64307;52.508;6.090;2023-03-18T13:58:24;5.68;;;2.78;;
75691;SDS011;64307;52.508;6.090;2023-03-18T14:01:29;6.63;;;2.65;;
75691;SDS011;64307;52.508;6.090;2023-03-18T14:03:58;5.20;;;2.50;;
75691;SDS011;64307;52.508;6.090;2023-03-18T14:09:22;4.53;;;2.42;;
75691;SDS011;64307;52.508;6.090;2023-03-18T14:11:47;5.90;;;2.50;;
75691;SDS011;64307;52.508;6.090;2023-03-18T14:17:21;5.22;;;2.15;;
75691;SDS011;64307;52.508;6.090;2023-03-18T14:20:00;4.65;;;2.10;;
75691;SDS011;64307;52.508;6.090;2023-03-18T14:22:33;6.38;;;2.92;;
75691;SDS011;64307;52.508;6.090;2023-03-18T14:33:03;8.60;;;2.28;;
75691;SDS011;64307;52.508;6.090;2023-03-18T14:35:50;4.63;;;2.17;;
75691;SDS011;64307;52.508;6.090;2023-03-18T14:41:14;5.00;;;1.48;;
75691;SDS011;64307;52.508;6.090;2023-03-18T14:43:46;6.53;;;1.88;;
75691;SDS011;64307;52.508;6.090;2023-03-18T14:46:15;5.32;;;1.20;;
75691;SDS011;64307;52.508;6.090;2023-03-18T14:48:43;11.20;;;1.70;;
75691;SDS011;64307;52.508;6.090;2023-03-18T14:51:13;6.32;;;1.20;;
75691;SDS011;64307;52.508;6.090;2023-03-18T14:53:55;5.22;;;1.50;;
75691;SDS011;64307;52.508;6.090;2023-03-18T14:56:28;5.05;;;1.15;;
75691;SDS011;64307;52.508;6.090;2023-03-18T14:59:00;4.93;;;1.80;;
75691;SDS011;64307;52.508;6.090;2023-03-18T15:01:33;2.83;;;0.75;;
75691;SDS011;64307;52.508;6.090;2023-03-18T15:04:00;4.53;;;0.60;;
75691;SDS011;64307;52.508;6.090;2023-03-18T15:06:27;3.58;;;0.52;;
75691;SDS011;64307;52.508;6.090;2023-03-18T15:08:57;3.75;;;0.60;;
75691;SDS011;64307;52.508;6.090;2023-03-18T15:11:25;1.35;;;0.73;;
75691;SDS011;64307;52.508;6.090;2023-03-18T15:13:55;2.25;;;0.30;;
75691;SDS011;64307;52.508;6.090;2023-03-18T15:16:22;3.45;;;1.48;;
75691;SDS011;64307;52.508;6.090;2023-03-18T15:18:52;3.63;;;0.82;;
75691;SDS011;64307;52.508;6.090;2023-03-18T15:21:20;4.30;;;1.38;;
75691;SDS011;64307;52.508;6.090;2023-03-18T15:23:55;2.42;;;0.60;;
75691;SDS011;64307;52.508;6.090;2023-03-18T15:26:25;3.90;;;0.57;;
75691;SDS011;64307;52.508;6.090;2023-03-18T15:32:07;2.78;;;0.60;;
75691;SDS011;64307;52.508;6.090;2023-03-18T15:34:43;2.53;;;0.52;;
75691;SDS011;64307;52.508;6.090;2023-03-18T15:39:51;2.38;;;0.45;;
75691;SDS011;64307;52.508;6.090;2023-03-18T15:42:20;4.15;;;0.90;;
75691;SDS011;64307;52.508;6.090;2023-03-18T15:44:52;2.88;;;0.77;;
75691;SDS011;64307;52.508;6.090;2023-03-18T15:47:29;2.75;;;0.50;;
75691;SDS011;64307;52.508;6.090;2023-03-18T15:52:27;2.97;;;0.70;;
75691;SDS011;64307;52.508;6.090;2023-03-18T15:54:55;2.10;;;0.50;;
75691;SDS011;64307;52.508;6.090;2023-03-18T15:57:39;2.78;;;0.60;;
75691;SDS011;64307;52.508;6.090;2023-03-18T16:00:07;2.03;;;0.60;;
75691;SDS011;64307;52.508;6.090;2023-03-18T16:02:34;2.08;;;0.57;;
75691;SDS011;64307;52.508;6.090;2023-03-18T16:05:20;2.40;;;0.60;;
75691;SDS011;64307;52.508;6.090;2023-03-18T16:07:50;1.70;;;0.30;;
75691;SDS011;64307;52.508;6.090;2023-03-18T16:10:19;2.33;;;0.77;;
75691;SDS011;64307;52.508;6.090;2023-03-18T16:12:47;3.75;;;0.75;;
75691;SDS011;64307;52.508;6.090;2023-03-18T16:15:16;1.67;;;0.50;;
75691;SDS011;64307;52.508;6.090;2023-03-18T16:17:48;3.08;;;1.30;;
75691;SDS011;64307;52.508;6.090;2023-03-18T16:20:33;3.30;;;0.98;;
75691;SDS011;64307;52.508;6.090;2023-03-18T16:22:58;3.63;;;1.20;;
75691;SDS011;64307;52.508;6.090;2023-03-18T16:25:24;3.05;;;1.30;;
75691;SDS011;64307;52.508;6.090;2023-03-18T16:27:50;5.68;;;2.20;;
75691;SDS011;64307;52.508;6.090;2023-03-18T16:30:20;6.60;;;2.65;;
75691;SDS011;64307;52.508;6.090;2023-03-18T16:32:48;3.97;;;2.28;;
75691;SDS011;64307;52.508;6.090;2023-03-18T16:35:14;5.03;;;1.85;;
75691;SDS011;64307;52.508;6.090;2023-03-18T16:37:42;9.55;;;2.17;;
75691;SDS011;64307;52.508;6.090;2023-03-18T16:40:13;5.90;;;1.95;;
75691;SDS011;64307;52.508;6.090;2023-03-18T16:42:46;4.90;;;2.10;;
75691;SDS011;64307;52.508;6.090;2023-03-18T16:45:15;5.53;;;3.08;;
75691;SDS011;64307;52.508;6.090;2023-03-18T16:47:46;5.45;;;3.28;;
75691;SDS011;64307;52.508;6.090;2023-03-18T16:52:41;4.13;;;2.95;;
75691;SDS011;64307;52.508;6.090;2023-03-18T16:55:08;6.28;;;2.47;;
75691;SDS011;64307;52.508;6.090;2023-03-18T16:57:37;6.68;;;2.17;;
75691;SDS011;64307;52.508;6.090;2023-03-18T17:00:06;5.72;;;2.67;;
75691;SDS011;64307;52.508;6.090;2023-03-18T17:02:43;5.82;;;1.80;;
75691;SDS011;64307;52.508;6.090;2023-03-18T17:05:12;3.83;;;1.77;;
75691;SDS011;64307;52.508;6.090;2023-03-18T17:07:41;5.05;;;2.33;;
75691;SDS011;64307;52.508;6.090;2023-03-18T17:10:13;6.05;;;2.03;;
75691;SDS011;64307;52.508;6.090;2023-03-18T17:12:42;6.38;;;2.47;;
75691;SDS011;64307;52.508;6.090;2023-03-18T17:15:18;5.43;;;2.40;;
75691;SDS011;64307;52.508;6.090;2023-03-18T17:17:47;5.07;;;2.30;;
75691;SDS011;64307;52.508;6.090;2023-03-18T17:20:17;4.90;;;2.35;;
75691;SDS011;64307;52.508;6.090;2023-03-18T17:22:44;5.25;;;2.53;;
75691;SDS011;64307;52.508;6.090;2023-03-18T17:25:10;5.47;;;2.72;;
75691;SDS011;64307;52.508;6.090;2023-03-18T17:27:43;6.47;;;3.22;;
75691;SDS011;64307;52.508;6.090;2023-03-18T17:30:14;5.40;;;2.70;;
75691;SDS011;64307;52.508;6.090;2023-03-18T17:32:42;6.65;;;4.38;;
75691;SDS011;64307;52.508;6.090;2023-03-18T17:35:11;6.18;;;3.38;;
75691;SDS011;64307;52.508;6.090;2023-03-18T17:37:39;7.88;;;3.20;;
75691;SDS011;64307;52.508;6.090;2023-03-18T17:40:05;8.13;;;3.95;;
75691;SDS011;64307;52.508;6.090;2023-03-18T17:42:31;7.03;;;3.78;;
75691;SDS011;64307;52.508;6.090;2023-03-18T17:45:00;8.13;;;4.88;;
75691;SDS011;64307;52.508;6.090;2023-03-18T17:47:30;8.27;;;5.38;;
75691;SDS011;64307;52.508;6.090;2023-03-18T17:49:55;8.75;;;4.00;;
75691;SDS011;64307;52.508;6.090;2023-03-18T17:52:21;7.47;;;3.47;;
75691;SDS011;64307;52.508;6.090;2023-03-18T17:54:47;6.22;;;4.05;;
75691;SDS011;64307;52.508;6.090;2023-03-18T17:57:14;8.32;;;4.05;;
75691;SDS011;64307;52.508;6.090;2023-03-18T17:59:40;8.23;;;4.60;;
75691;SDS011;64307;52.508;6.090;2023-03-18T18:02:10;8.73;;;4.45;;
75691;SDS011;64307;52.508;6.090;2023-03-18T18:04:39;6.78;;;3.83;;
75691;SDS011;64307;52.508;6.090;2023-03-18T18:07:14;7.88;;;4.85;;
75691;SDS011;64307;52.508;6.090;2023-03-18T18:09:41;6.15;;;4.03;;
75691;SDS011;64307;52.508;6.090;2023-03-18T18:12:15;6.75;;;3.53;;